Time;durP1;ratioP1;P1;durP2;ratioP2;P2;SDS_P1;SDS_P2;PMS_P1;PMS_P2;Temp;Humidity;BMP_temperature;BMP_pressure;BME280_temperature;BME280_humidity;BME280_pressure;Samples;Min_cycle;Max_cycle;Signal;HPM_P1;HPM_P2
2022/03/18 00:00:33;;;;;;;6.73;4.57;;;1.10;99.90;;;;;;5070302;28;20195;-82
2022/03/18 00:02:59;;;;;;;9.17;4.63;;;1.10;99.90;;;;;;5070139;28;20251;-81
2022/03/18 00:05:25;;;;;;;8.70;4.63;;;1.10;99.90;;;;;;5070507;28;20253;-83
2022/03/18 00:07:52;;;;;;;6.37;4.47;;;1.10;99.90;;;;;;5071385;28;20177;-81
2022/03/18 00:10:18;;;;;;;7.47;4.37;;;1.00;99.90;;;;;;5071155;28;20177;-81
2022/03/18 00:12:45;;;;;;;7.43;4.07;;;1.00;99.90;;;;;;5083356;28;20205;-82
2022/03/18 00:15:13;;;;;;;5.77;3.60;;;0.90;99.90;;;;;;5071221;28;20182;-83
2022/03/18 00:17:39;;;;;;;5.43;4.20;;;0.90;99.90;;;;;;5070335;28;20281;-81
2022/03/18 00:20:06;;;;;;;6.07;3.63;;;0.90;99.90;;;;;;5070000;28;20710;-80
2022/03/18 00:22:32;;;;;;;7.13;4.00;;;1.00;99.90;;;;;;5082319;28;20596;-84
2022/03/18 00:24:57;;;;;;;5.27;3.70;;;0.90;99.90;;;;;;5081712;28;20209;-83
2022/03/18 00:27:24;;;;;;;7.03;3.60;;;0.90;99.90;;;;;;5071470;28;20177;-82
2022/03/18 00:29:49;;;;;;;8.70;3.83;;;0.90;99.90;;;;;;5072440;28;20183;-84
2022/03/18 00:32:15;;;;;;;7.13;3.87;;;1.00;99.90;;;;;;5084916;28;20237;-84
2022/03/18 00:34:40;;;;;;;8.17;3.70;;;1.00;99.90;;;;;;5073475;28;20183;-81
2022/03/18 00:37:07;;;;;;;6.40;4.00;;;0.90;99.90;;;;;;5073048;28;20225;-80
2022/03/18 00:39:32;;;;;;;7.17;4.03;;;0.80;99.90;;;;;;5071576;28;20210;-80
2022/03/18 00:41:58;;;;;;;7.13;3.97;;;0.80;99.90;;;;;;5069919;28;20231;-80
2022/03/18 00:44:25;;;;;;;7.50;3.87;;;0.70;99.90;;;;;;5071910;28;20547;-81
2022/03/18 00:46:54;;;;;;;5.17;3.30;;;0.70;99.90;;;;;;5084929;28;20201;-83
2022/03/18 00:52:05;;;;;;;5.97;3.33;;;0.60;99.90;;;;;;5082620;28;20180;-79
2022/03/18 00:54:36;;;;;;;5.60;3.90;;;0.70;99.90;;;;;;5080654;28;20200;-81
2022/03/18 00:57:04;;;;;;;5.47;3.67;;;0.70;99.90;;;;;;5068291;28;20252;-81
2022/03/18 00:59:30;;;;;;;5.73;3.80;;;0.70;99.90;;;;;;5078895;28;20184;-81
2022/03/18 01:01:57;;;;;;;7.33;3.80;;;0.60;99.90;;;;;;5071351;28;20191;-80
2022/03/18 01:04:24;;;;;;;7.17;3.57;;;0.60;99.90;;;;;;5071405;28;20565;-79
2022/03/18 01:06:52;;;;;;;6.60;4.00;;;0.60;99.90;;;;;;5072524;28;20245;-82
2022/03/18 01:09:19;;;;;;;4.20;3.80;;;0.60;99.90;;;;;;5072389;28;20202;-80
2022/03/18 01:11:45;;;;;;;7.83;3.50;;;0.70;99.90;;;;;;5070261;28;20173;-79
2022/03/18 01:14:11;;;;;;;5.47;3.77;;;0.60;99.90;;;;;;5080333;28;20340;-81
2022/03/18 01:16:36;;;;;;;6.57;4.03;;;0.70;99.90;;;;;;5072778;28;20627;-79
2022/03/18 01:19:02;;;;;;;8.20;4.53;;;0.80;99.90;;;;;;5071036;28;20188;-79
2022/03/18 01:21:28;;;;;;;6.77;4.40;;;0.70;99.90;;;;;;5071201;28;20196;-82
2022/03/18 01:23:53;;;;;;;9.27;4.17;;;0.60;99.90;;;;;;5081153;28;20326;-86
2022/03/18 01:26:19;;;;;;;6.83;4.97;;;0.70;99.90;;;;;;5070628;28;20266;-81
2022/03/18 01:28:44;;;;;;;10.27;4.93;;;0.70;99.90;;;;;;5072004;28;20181;-81
2022/03/18 01:31:10;;;;;;;8.17;4.93;;;0.60;99.90;;;;;;5070315;28;20306;-82
2022/03/18 01:33:37;;;;;;;7.83;5.00;;;0.60;99.90;;;;;;5072414;28;20228;-80
2022/03/18 01:36:03;;;;;;;9.63;5.30;;;0.60;99.90;;;;;;5072010;28;20189;-81
2022/03/18 01:38:29;;;;;;;9.03;5.63;;;0.60;99.90;;;;;;5070162;28;20196;-82
2022/03/18 01:40:55;;;;;;;17.13;6.87;;;0.60;99.90;;;;;;5071586;28;20185;-80
2022/03/18 01:43:21;;;;;;;14.53;6.50;;;0.70;99.90;;;;;;5070756;28;21174;-80
2022/03/18 01:45:46;;;;;;;12.53;6.20;;;0.60;99.90;;;;;;5070273;28;20240;-83
2022/03/18 01:48:13;;;;;;;18.23;6.43;;;0.60;99.90;;;;;;5069672;28;20207;-82
2022/03/18 01:50:40;;;;;;;13.83;6.17;;;0.60;99.90;;;;;;5069908;28;20188;-81
2022/03/18 01:53:06;;;;;;;15.23;8.27;;;0.70;99.90;;;;;;5069158;28;20206;-80
2022/03/18 01:55:32;;;;;;;12.83;5.80;;;0.60;99.90;;;;;;5069530;28;20189;-82
2022/03/18 01:57:58;;;;;;;10.53;6.37;;;0.50;99.90;;;;;;5079405;28;20193;-82
2022/03/18 02:00:24;;;;;;;13.00;6.33;;;0.40;99.90;;;;;;5068829;28;20181;-82
2022/03/18 02:02:51;;;;;;;11.43;6.50;;;0.40;99.90;;;;;;5080544;28;20217;-81
2022/03/18 02:05:17;;;;;;;11.70;6.03;;;0.30;99.90;;;;;;5068035;28;20205;-81
2022/03/18 02:07:45;;;;;;;10.67;7.17;;;0.20;99.90;;;;;;5069537;28;20230;-81
2022/03/18 02:10:11;;;;;;;11.57;6.47;;;0.20;99.90;;;;;;5068326;28;20192;-82
2022/03/18 02:12:37;;;;;;;9.37;6.13;;;0.30;99.90;;;;;;5068678;28;20589;-83
2022/03/18 02:15:03;;;;;;;9.73;6.17;;;0.20;99.90;;;;;;5068569;28;20197;-82
2022/03/18 02:17:29;;;;;;;7.33;5.53;;;0.20;99.90;;;;;;5067747;28;20717;-81
2022/03/18 02:19:55;;;;;;;9.77;6.43;;;0.20;99.90;;;;;;5068344;28;20220;-81
2022/03/18 02:22:25;;;;;;;14.10;7.63;;;0.20;99.90;;;;;;5078019;28;20244;-84
2022/03/18 02:24:55;;;;;;;13.60;8.60;;;0.20;99.90;;;;;;5077322;28;20230;-82
2022/03/18 02:27:21;;;;;;;10.03;7.37;;;0.40;99.90;;;;;;5067653;28;20185;-80
2022/03/18 02:29:48;;;;;;;11.37;7.40;;;0.30;99.90;;;;;;5068756;28;20643;-83
2022/03/18 02:32:14;;;;;;;20.07;10.47;;;0.30;99.90;;;;;;5067625;28;20182;-80
2022/03/18 02:34:41;;;;;;;19.03;10.87;;;0.30;99.90;;;;;;5067648;28;20238;-80
2022/03/18 02:37:07;;;;;;;13.97;8.10;;;0.30;99.90;;;;;;5067410;28;20273;-82
2022/03/18 02:39:33;;;;;;;14.63;8.67;;;0.30;99.90;;;;;;5068416;28;20277;-81
2022/03/18 02:41:59;;;;;;;14.10;8.00;;;0.30;99.90;;;;;;5067820;28;20304;-79
2022/03/18 02:44:25;;;;;;;14.70;7.90;;;0.40;99.90;;;;;;5068050;28;20178;-82
2022/03/18 02:46:50;;;;;;;18.67;7.73;;;0.40;99.90;;;;;;5067404;28;20208;-82
2022/03/18 02:49:16;;;;;;;22.03;8.70;;;0.30;99.90;;;;;;5077902;28;20228;-82
2022/03/18 02:51:42;;;;;;;26.40;8.33;;;0.20;99.90;;;;;;5079518;28;20662;-80
2022/03/18 02:54:09;;;;;;;19.47;7.67;;;0.20;99.90;;;;;;5078268;28;20205;-78
2022/03/18 02:56:36;;;;;;;16.93;7.30;;;0.20;99.90;;;;;;5067021;28;20185;-81
2022/03/18 02:59:03;;;;;;;13.67;7.00;;;0.20;99.90;;;;;;5078091;28;20242;-81
2022/03/18 03:01:30;;;;;;;12.87;6.93;;;0.30;99.90;;;;;;5067174;28;20188;-81
2022/03/18 03:03:56;;;;;;;19.20;6.90;;;0.30;99.90;;;;;;5067900;28;20216;-79
2022/03/18 03:09:06;;;;;;;8.67;6.33;;;0.20;99.90;;;;;;5077790;28;20212;-82
2022/03/18 03:11:32;;;;;;;10.53;6.23;;;0.20;99.90;;;;;;5078178;28;20201;-80
2022/03/18 03:13:57;;;;;;;9.83;6.80;;;0.10;99.90;;;;;;5066326;28;20205;-80
2022/03/18 03:16:23;;;;;;;15.13;7.37;;;0.30;99.90;;;;;;5065899;28;20181;-79
2022/03/18 03:18:49;;;;;;;10.83;6.87;;;0.20;99.90;;;;;;5070216;28;20216;-79
2022/03/18 03:21:15;;;;;;;11.43;6.73;;;0.20;99.90;;;;;;5080761;28;20542;-82
2022/03/18 03:23:42;;;;;;;13.03;6.23;;;0.20;99.90;;;;;;5069280;28;20201;-80
2022/03/18 03:26:07;;;;;;;10.90;5.97;;;0.20;99.90;;;;;;5080342;28;20350;-80
2022/03/18 03:28:33;;;;;;;11.20;5.77;;;0.30;99.90;;;;;;5070989;28;20267;-83
2022/03/18 03:31:00;;;;;;;16.17;5.73;;;0.30;99.90;;;;;;5072719;28;20644;-79
2022/03/18 03:33:26;;;;;;;13.80;5.90;;;0.30;99.90;;;;;;5068748;28;20205;-79
2022/03/18 03:35:51;;;;;;;11.83;5.70;;;0.30;99.90;;;;;;5079056;28;20189;-81
2022/03/18 03:38:17;;;;;;;13.17;5.37;;;0.10;99.90;;;;;;5078982;28;20193;-83
2022/03/18 03:40:43;;;;;;;10.47;5.43;;;0.00;99.90;;;;;;5069613;28;20686;-81
2022/03/18 03:43:09;;;;;;;11.53;5.20;;;0.10;99.90;;;;;;5080989;28;20738;-82
2022/03/18 03:45:39;;;;;;;15.63;5.20;;;0.00;99.90;;;;;;5077726;28;20206;-79
2022/03/18 03:48:06;;;;;;;11.03;4.77;;;-0.10;99.90;;;;;;5069594;28;20192;-81
2022/03/18 03:50:32;;;;;;;11.70;4.77;;;-0.10;99.90;;;;;;5069214;28;20241;-83
2022/03/18 03:52:58;;;;;;;16.03;5.10;;;-0.10;99.90;;;;;;5069975;28;20693;-80
2022/03/18 03:55:24;;;;;;;12.87;4.60;;;0.00;99.90;;;;;;5069068;28;20272;-81
2022/03/18 03:57:49;;;;;;;16.73;4.57;;;0.00;99.90;;;;;;5069223;28;20185;-82
2022/03/18 04:00:16;;;;;;;11.63;5.13;;;0.00;99.90;;;;;;5077227;28;20181;-82
2022/03/18 04:02:43;;;;;;;20.60;5.10;;;0.10;99.90;;;;;;5068808;28;20205;-79
2022/03/18 04:05:10;;;;;;;16.27;5.40;;;0.00;99.90;;;;;;5075712;28;20257;-79
2022/03/18 04:07:37;;;;;;;13.80;5.50;;;0.00;99.90;;;;;;5078705;28;20181;-83
2022/03/18 04:10:04;;;;;;;13.53;5.07;;;-0.10;99.90;;;;;;5068608;28;20260;-79
2022/03/18 04:12:32;;;;;;;7.50;4.63;;;-0.10;99.90;;;;;;5067363;28;20583;-79
2022/03/18 04:14:58;;;;;;;7.73;4.63;;;-0.10;99.90;;;;;;5068243;28;20184;-82
2022/03/18 04:17:26;;;;;;;10.20;4.80;;;-0.10;99.90;;;;;;5067129;28;20370;-80
2022/03/18 04:19:52;;;;;;;13.37;5.23;;;-0.10;99.90;;;;;;5067790;28;20652;-80
2022/03/18 04:22:17;;;;;;;12.80;5.33;;;-0.20;99.90;;;;;;5078779;28;20234;-82
2022/03/18 04:24:43;;;;;;;15.73;4.87;;;-0.20;99.90;;;;;;5068219;28;20197;-79
2022/03/18 04:27:09;;;;;;;11.63;4.63;;;-0.20;99.90;;;;;;5066976;28;20205;-79
2022/03/18 04:29:34;;;;;;;11.13;5.60;;;-0.20;99.90;;;;;;5080280;28;20181;-80
2022/03/18 04:32:00;;;;;;;9.80;5.50;;;-0.20;99.90;;;;;;5067595;28;20611;-79
2022/03/18 04:34:26;;;;;;;10.93;5.07;;;-0.30;99.90;;;;;;5067950;28;20187;-81
2022/03/18 04:36:52;;;;;;;11.67;4.83;;;-0.30;99.90;;;;;;5067073;28;20568;-79
2022/03/18 04:39:17;;;;;;;13.80;6.87;;;-0.30;99.90;;;;;;5076363;28;20195;-79
2022/03/18 04:41:43;;;;;;;9.63;5.63;;;-0.30;99.90;;;;;;5077152;28;20241;-79
2022/03/18 04:44:08;;;;;;;10.97;6.33;;;-0.40;99.90;;;;;;5067110;28;20208;-81
2022/03/18 04:46:34;;;;;;;8.87;5.93;;;-0.40;99.90;;;;;;5078298;28;20204;-78
2022/03/18 04:49:00;;;;;;;9.43;6.30;;;-0.40;99.90;;;;;;5078755;28;20186;-78
2022/03/18 04:51:26;;;;;;;11.47;6.20;;;-0.50;99.90;;;;;;5068017;28;20588;-83
2022/03/18 04:53:52;;;;;;;10.67;6.43;;;-0.50;99.90;;;;;;5078387;28;20204;-80
2022/03/18 04:59:01;;;;;;;9.20;6.17;;;-0.60;99.90;;;;;;5077898;28;20662;-83
2022/03/18 05:01:27;;;;;;;10.73;6.37;;;-0.70;99.90;;;;;;5078002;28;20197;-79
2022/03/18 05:03:54;;;;;;;8.37;6.07;;;-0.70;99.90;;;;;;5077485;28;20205;-79
2022/03/18 05:06:20;;;;;;;9.47;6.60;;;-0.70;99.90;;;;;;5067653;28;20211;-80
2022/03/18 05:08:46;;;;;;;10.43;6.63;;;-0.70;99.90;;;;;;5067525;28;20177;-79
2022/03/18 05:11:14;;;;;;;11.40;6.43;;;-0.50;99.90;;;;;;5067260;28;20188;-78
2022/03/18 05:13:40;;;;;;;8.33;6.67;;;-0.40;99.90;;;;;;5073664;28;20197;-79
2022/03/18 05:16:06;;;;;;;10.33;6.30;;;-0.40;99.90;;;;;;5067277;28;20721;-80
2022/03/18 05:18:31;;;;;;;9.17;6.80;;;-0.50;99.90;;;;;;5078085;28;20217;-82
2022/03/18 05:20:57;;;;;;;13.30;7.47;;;-0.40;99.90;;;;;;5066229;28;20192;-78
2022/03/18 05:23:23;;;;;;;14.37;7.93;;;-0.50;99.90;;;;;;5066624;28;20266;-80
2022/03/18 05:25:49;;;;;;;12.53;7.03;;;-0.50;99.90;;;;;;5077794;28;20234;-81
2022/03/18 05:28:15;;;;;;;13.80;7.80;;;-0.60;99.90;;;;;;5066490;28;20559;-79
2022/03/18 05:30:40;;;;;;;18.20;7.87;;;-0.60;99.90;;;;;;5065615;28;20185;-79
2022/03/18 05:33:06;;;;;;;23.50;10.03;;;-0.60;99.90;;;;;;5066563;28;20208;-80
2022/03/18 05:35:32;;;;;;;15.87;9.27;;;-0.60;99.90;;;;;;5067698;28;20245;-79
2022/03/18 05:37:58;;;;;;;22.07;8.33;;;-0.60;99.90;;;;;;5067387;28;20191;-80
2022/03/18 05:40:24;;;;;;;19.20;8.67;;;-0.60;99.90;;;;;;5077237;28;20654;-78
2022/03/18 05:42:50;;;;;;;17.73;8.37;;;-0.80;99.90;;;;;;5066498;28;20691;-78
2022/03/18 05:45:16;;;;;;;10.07;6.50;;;-0.80;99.90;;;;;;5065867;28;20295;-81
2022/03/18 05:47:42;;;;;;;14.60;8.27;;;-0.70;99.90;;;;;;5074714;28;20181;-78
2022/03/18 05:50:08;;;;;;;15.30;7.33;;;-0.50;99.90;;;;;;5077019;28;20362;-81
2022/03/18 05:52:35;;;;;;;20.13;6.93;;;-0.60;99.90;;;;;;5067062;28;20236;-79
2022/03/18 05:55:01;;;;;;;12.80;6.93;;;-0.70;99.90;;;;;;5065996;28;20196;-81
2022/03/18 05:57:28;;;;;;;11.27;6.67;;;-0.80;99.90;;;;;;5075897;28;20181;-78
2022/03/18 05:59:55;;;;;;;12.50;7.03;;;-1.00;99.90;;;;;;5066167;28;20188;-79
2022/03/18 06:02:21;;;;;;;16.73;7.20;;;-1.00;99.90;;;;;;5065516;28;20747;-80
2022/03/18 06:04:47;;;;;;;12.37;6.87;;;-0.90;99.90;;;;;;5065708;28;20181;-79
2022/03/18 06:07:14;;;;;;;10.70;6.53;;;-0.90;99.90;;;;;;5076598;28;20188;-80
2022/03/18 06:12:23;;;;;;;11.23;6.60;;;-0.70;99.90;;;;;;5078001;28;20334;-80
2022/03/18 06:14:49;;;;;;;18.00;6.50;;;-0.70;99.90;;;;;;5066391;28;20272;-78
2022/03/18 06:17:14;;;;;;;9.63;6.47;;;-0.70;99.90;;;;;;5076252;28;20193;-77
2022/03/18 06:19:40;;;;;;;8.60;7.13;;;-0.60;99.90;;;;;;5066056;28;21015;-80
2022/03/18 06:22:08;;;;;;;8.87;5.90;;;-0.50;99.90;;;;;;5066125;28;20181;-79
2022/03/18 06:24:34;;;;;;;7.07;5.50;;;-0.60;99.90;;;;;;5075962;28;20254;-78
2022/03/18 06:27:01;;;;;;;11.00;6.00;;;-0.70;99.90;;;;;;5076511;28;20208;-78
2022/03/18 06:29:30;;;;;;;13.17;6.40;;;-0.60;99.90;;;;;;5065673;28;20644;-81
2022/03/18 06:32:01;;;;;;;7.33;6.30;;;-0.60;99.90;;;;;;5066055;28;20177;-77
2022/03/18 06:34:27;;;;;;;8.20;6.10;;;-0.60;99.90;;;;;;5075065;28;20176;-79
2022/03/18 06:36:55;;;;;;;9.00;6.13;;;-0.60;99.90;;;;;;5066399;28;20214;-80
2022/03/18 06:39:22;;;;;;;13.47;7.07;;;-0.50;99.90;;;;;;5076676;28;20185;-79
2022/03/18 06:41:48;;;;;;;11.70;6.73;;;-0.40;99.90;;;;;;5066113;28;20178;-79
2022/03/18 06:44:14;;;;;;;12.03;6.33;;;-0.40;99.90;;;;;;5076521;28;20209;-80
2022/03/18 06:46:40;;;;;;;13.23;6.50;;;-0.30;99.90;;;;;;5070866;28;20201;-81
2022/03/18 06:49:07;;;;;;;9.17;7.20;;;-0.30;99.90;;;;;;5065942;28;20617;-81
2022/03/18 06:51:34;;;;;;;11.27;6.73;;;-0.20;99.90;;;;;;5077428;28;20180;-82
2022/03/18 06:53:59;;;;;;;16.97;7.33;;;-0.20;99.90;;;;;;5070730;28;20201;-79
2022/03/18 06:56:27;;;;;;;9.17;6.77;;;-0.20;99.90;;;;;;5071509;28;20538;-82
2022/03/18 06:58:53;;;;;;;8.00;6.30;;;0.00;99.90;;;;;;5071504;28;20185;-78
2022/03/18 07:01:21;;;;;;;8.97;6.57;;;0.00;99.90;;;;;;5071318;28;20189;-78
2022/03/18 07:03:47;;;;;;;7.20;5.93;;;0.00;99.90;;;;;;5080572;28;20638;-78
2022/03/18 07:06:13;;;;;;;7.47;6.20;;;0.00;99.90;;;;;;5077932;28;20193;-78
2022/03/18 07:08:39;;;;;;;7.90;5.77;;;0.00;99.90;;;;;;5082135;28;20235;-79
2022/03/18 07:11:05;;;;;;;11.03;6.40;;;0.00;99.90;;;;;;5070636;28;20184;-82
2022/03/18 07:13:31;;;;;;;9.60;7.17;;;-0.10;99.90;;;;;;5070778;28;20196;-82
2022/03/18 07:17:54;;;;;;;8.83;6.50;;;0.00;99.90;;;;;;5070484;28;20189;-82
2022/03/18 07:18:42;;;;;;;8.83;6.57;;;0.10;99.90;;;;;;5081070;28;20186;-80
2022/03/18 07:21:08;;;;;;;12.67;6.47;;;0.20;99.90;;;;;;5081196;28;20204;-81
2022/03/18 07:23:33;;;;;;;6.77;6.07;;;0.10;99.90;;;;;;5069544;28;20232;-80
2022/03/18 07:25:59;;;;;;;7.83;6.30;;;0.00;99.90;;;;;;5072026;28;20366;-81
2022/03/18 07:28:24;;;;;;;11.73;9.47;;;0.10;99.90;;;;;;5071126;28;20186;-81
2022/03/18 07:30:50;;;;;;;8.97;6.30;;;0.20;99.90;;;;;;5071234;28;20597;-79
2022/03/18 07:33:16;;;;;;;7.27;6.07;;;0.30;99.90;;;;;;5079627;28;20259;-81
2022/03/18 07:35:42;;;;;;;5.73;5.20;;;0.40;99.90;;;;;;5082785;28;20562;-83
2022/03/18 07:38:09;;;;;;;5.93;5.23;;;0.60;99.90;;;;;;5071165;28;20199;-82
2022/03/18 07:40:38;;;;;;;7.23;6.37;;;0.70;99.90;;;;;;5080752;28;20614;-79
2022/03/18 07:43:05;;;;;;;6.60;5.90;;;1.00;99.90;;;;;;5080270;28;20204;-80
2022/03/18 07:45:34;;;;;;;7.43;6.53;;;1.10;99.90;;;;;;5079480;28;21416;-78
2022/03/18 07:48:06;;;;;;;7.20;5.93;;;1.10;99.90;;;;;;5070227;28;20207;-77
2022/03/18 07:50:33;;;;;;;5.80;5.20;;;1.20;99.90;;;;;;5082136;28;20842;-79
2022/03/18 07:53:04;;;;;;;8.13;5.30;;;1.40;99.90;;;;;;5070020;28;20205;-82
2022/03/18 07:55:31;;;;;;;5.83;5.23;;;1.20;99.90;;;;;;5070339;28;20260;-80
2022/03/18 07:57:58;;;;;;;6.67;5.30;;;1.40;99.90;;;;;;5070103;28;20677;-83
2022/03/18 08:00:24;;;;;;;6.63;5.67;;;1.50;99.90;;;;;;5079309;28;20190;-81
2022/03/18 08:02:51;;;;;;;7.60;6.13;;;1.80;99.90;;;;;;5068167;28;20212;-82
2022/03/18 08:05:17;;;;;;;7.77;6.47;;;2.00;99.90;;;;;;5077942;28;20197;-82
2022/03/18 08:07:44;;;;;;;7.40;6.60;;;2.30;99.90;;;;;;5067879;28;20208;-83
2022/03/18 08:10:10;;;;;;;8.83;6.63;;;2.60;99.90;;;;;;5068617;28;20181;-81
2022/03/18 08:12:40;;;;;;;10.00;7.23;;;2.90;99.90;;;;;;5067421;28;20254;-82
2022/03/18 08:15:12;;;;;;;11.80;8.20;;;3.20;99.90;;;;;;5067963;28;20181;-81
2022/03/18 08:17:38;;;;;;;11.80;8.27;;;3.40;99.90;;;;;;5066738;28;20219;-82
2022/03/18 08:20:08;;;;;;;13.40;8.50;;;3.70;99.90;;;;;;5076937;28;20288;-81
2022/03/18 08:22:35;;;;;;;12.07;8.40;;;4.00;99.90;;;;;;5067443;28;20201;-80
2022/03/18 08:25:01;;;;;;;13.27;8.07;;;4.30;99.90;;;;;;5077151;28;20208;-81
2022/03/18 08:27:27;;;;;;;12.03;7.47;;;4.50;99.90;;;;;;5076424;28;20177;-82
2022/03/18 08:29:57;;;;;;;9.37;7.27;;;4.70;99.90;;;;;;5076389;28;20268;-81
2022/03/18 08:32:25;;;;;;;8.03;6.60;;;5.00;99.90;;;;;;5078796;28;20232;-82
2022/03/18 08:34:51;;;;;;;9.13;5.83;;;5.10;99.90;;;;;;5078586;28;20186;-79
2022/03/18 08:37:56;;;;;;;7.90;6.07;;;5.10;99.90;;;;;;5077292;28;20216;-81
2022/03/18 08:40:03;;;;;;;8.63;5.90;;;5.00;99.90;;;;;;5079588;28;20211;-81
2022/03/18 08:42:29;;;;;;;7.00;6.20;;;5.10;99.90;;;;;;5075754;28;20197;-83
2022/03/18 08:44:56;;;;;;;9.00;6.43;;;5.20;99.90;;;;;;5064925;28;20192;-81
2022/03/18 08:47:23;;;;;;;11.20;6.10;;;5.30;99.90;;;;;;5077800;28;20180;-80
2022/03/18 08:49:49;;;;;;;12.90;6.70;;;5.50;99.90;;;;;;5076484;28;20686;-81
2022/03/18 08:52:15;;;;;;;10.87;6.30;;;5.70;99.90;;;;;;5066324;28;20181;-81
2022/03/18 08:54:40;;;;;;;10.83;6.30;;;5.90;99.90;;;;;;5065592;28;20736;-82
2022/03/18 08:57:06;;;;;;;9.40;6.53;;;6.10;99.90;;;;;;5066274;28;20208;-80
2022/03/18 08:59:31;;;;;;;7.90;5.20;;;6.20;99.90;;;;;;5066610;28;20227;-83
2022/03/18 09:01:57;;;;;;;9.93;5.67;;;6.10;99.90;;;;;;5075718;28;20981;-81
2022/03/18 09:04:24;;;;;;;11.53;5.40;;;6.20;99.90;;;;;;5065936;28;20679;-83
2022/03/18 09:06:49;;;;;;;9.13;5.07;;;6.40;99.90;;;;;;5065051;28;20291;-81
2022/03/18 09:09:15;;;;;;;9.27;4.47;;;6.60;99.90;;;;;;5075131;28;20289;-81
2022/03/18 09:11:41;;;;;;;6.80;3.70;;;6.70;99.90;;;;;;5065252;28;20231;-82
2022/03/18 09:14:08;;;;;;;9.07;3.33;;;6.80;99.90;;;;;;5073274;28;20286;-79
2022/03/18 09:16:36;;;;;;;9.93;3.17;;;6.80;99.90;;;;;;5068093;28;20177;-86
2022/03/18 09:19:03;;;;;;;8.77;3.03;;;7.00;99.90;;;;;;5078973;28;20189;-83
2022/03/18 09:21:28;;;;;;;7.27;2.97;;;7.10;99.90;;;;;;5079960;28;20200;-83
2022/03/18 09:23:54;;;;;;;6.27;2.50;;;7.20;99.90;;;;;;5065561;28;20232;-84
2022/03/18 09:26:20;;;;;;;6.57;3.13;;;7.30;99.90;;;;;;5066291;28;20216;-84
2022/03/18 09:28:46;;;;;;;6.03;1.83;;;7.40;99.90;;;;;;5065301;28;20188;-84
2022/03/18 09:31:12;;;;;;;6.27;1.90;;;7.60;99.90;;;;;;5075183;28;20177;-84
2022/03/18 09:33:38;;;;;;;6.17;2.03;;;7.70;99.90;;;;;;5064347;28;20224;-82
2022/03/18 09:36:04;;;;;;;8.83;2.60;;;7.80;99.90;;;;;;5063825;28;20305;-82
2022/03/18 09:38:30;;;;;;;7.80;1.50;;;8.00;99.90;;;;;;5076254;28;20190;-84
2022/03/18 09:40:55;;;;;;;4.43;1.83;;;8.00;99.90;;;;;;5065407;28;20192;-82
2022/03/18 09:43:21;;;;;;;5.27;1.60;;;8.00;99.90;;;;;;5064984;28;20585;-83
2022/03/18 09:45:47;;;;;;;3.23;1.67;;;8.00;99.90;;;;;;5064837;28;20215;-83
2022/03/18 09:48:13;;;;;;;3.53;2.03;;;8.20;99.90;;;;;;5066953;28;20224;-82
2022/03/18 09:50:40;;;;;;;9.07;2.43;;;8.20;99.90;;;;;;5066160;28;20208;-79
2022/03/18 09:53:06;;;;;;;4.83;1.97;;;8.20;99.90;;;;;;5077184;28;20207;-82
2022/03/18 09:55:34;;;;;;;7.20;2.33;;;8.30;99.90;;;;;;5065042;28;20197;-77
2022/03/18 09:58:00;;;;;;;7.00;1.83;;;8.40;99.90;;;;;;5075240;28;20197;-78
2022/03/18 10:00:26;;;;;;;7.03;2.40;;;8.50;99.90;;;;;;5075466;28;20189;-81
2022/03/18 10:03:18;;;;;;;5.87;2.87;;;8.50;99.90;;;;;;5065198;28;20213;-82
2022/03/18 10:05:54;;;;;;;6.03;2.30;;;8.50;99.90;;;;;;5075389;28;20209;-83
2022/03/18 10:08:21;;;;;;;6.97;2.63;;;8.60;99.90;;;;;;5063661;28;20180;-83
2022/03/18 10:10:48;;;;;;;9.40;3.37;;;8.80;99.90;;;;;;5064763;28;20907;-85
2022/03/18 10:13:16;;;;;;;5.17;2.40;;;8.80;99.90;;;;;;5072615;28;20287;-81
2022/03/18 10:15:44;;;;;;;6.00;2.73;;;8.80;99.90;;;;;;5075601;28;20216;-81
2022/03/18 10:18:14;;;;;;;8.80;2.60;;;9.10;99.90;;;;;;5065655;28;20232;-79
2022/03/18 10:20:48;;;;;;;5.23;2.20;;;9.20;99.90;;;;;;5077624;28;20181;-78
2022/03/18 10:23:16;;;;;;;8.00;3.17;;;9.00;99.90;;;;;;5079625;28;20647;-81
2022/03/18 10:25:52;;;;;;;4.53;2.07;;;9.30;99.90;;;;;;5075787;28;20216;-82
2022/03/18 10:28:36;;;;;;;5.50;2.43;;;9.50;99.90;;;;;;5070373;28;20659;-81
2022/03/18 10:31:22;;;;;;;10.63;3.20;;;9.50;99.90;;;;;;5076306;28;20187;-80
2022/03/18 10:39:30;;;;;;;3.77;2.47;;;9.80;99.90;;;;;;5080744;28;20229;-82
2022/03/18 10:41:58;;;;;;;5.50;2.80;;;10.00;99.90;;;;;;5081063;28;20180;-83
2022/03/18 10:44:23;;;;;;;6.27;2.90;;;9.90;99.90;;;;;;5069568;28;20274;-82
2022/03/18 10:46:50;;;;;;;4.90;2.30;;;9.90;99.90;;;;;;5070030;28;20208;-81
2022/03/18 10:49:16;;;;;;;4.40;1.83;;;10.00;99.90;;;;;;5068672;28;20235;-83
2022/03/18 10:51:43;;;;;;;3.00;1.63;;;10.10;99.90;;;;;;5071283;28;20652;-82
2022/03/18 10:54:11;;;;;;;3.87;1.50;;;9.90;99.90;;;;;;5072578;28;20777;-81
2022/03/18 10:56:57;;;;;;;6.03;2.13;;;9.60;99.90;;;;;;5081971;28;20308;-77
2022/03/18 10:59:27;;;;;;;4.47;1.90;;;9.60;99.90;;;;;;5079720;28;20181;-83
2022/03/18 11:01:56;;;;;;;3.43;1.57;;;9.70;99.90;;;;;;5069682;28;20181;-83
2022/03/18 11:04:24;;;;;;;3.73;1.47;;;9.70;99.90;;;;;;5068989;28;20584;-78
2022/03/18 11:12:35;;;;;;;3.47;1.70;;;10.10;99.90;;;;;;5078883;28;20790;-82
2022/03/18 11:15:05;;;;;;;6.60;3.03;;;10.00;99.90;;;;;;5067102;28;20182;-83
2022/03/18 11:17:32;;;;;;;6.40;2.50;;;9.80;99.90;;;;;;5078426;28;20611;-80
2022/03/18 11:20:01;;;;;;;5.20;2.57;;;10.10;99.90;;;;;;5066521;28;20177;-82
2022/03/18 11:22:28;;;;;;;5.77;2.10;;;10.00;99.90;;;;;;5067846;28;20756;-81
2022/03/18 11:24:55;;;;;;;5.70;2.10;;;10.10;99.90;;;;;;5078088;28;20227;-83
2022/03/18 11:27:21;;;;;;;4.07;2.17;;;10.20;99.90;;;;;;5069663;28;20292;-78
2022/03/18 11:30:07;;;;;;;5.40;2.37;;;10.40;99.90;;;;;;5079310;28;20264;-81
2022/03/18 11:32:33;;;;;;;5.33;2.23;;;10.40;99.90;;;;;;5080562;28;20235;-81
2022/03/18 11:35:06;;;;;;;9.03;2.87;;;10.40;99.90;;;;;;5068550;28;20209;-80
2022/03/18 11:37:33;;;;;;;5.60;2.17;;;10.20;99.90;;;;;;5078322;28;20219;-82
2022/03/18 11:40:22;;;;;;;8.13;2.93;;;10.20;99.90;;;;;;5076003;28;20191;-82
2022/03/18 11:42:49;;;;;;;3.63;2.40;;;10.30;99.90;;;;;;5069071;28;20200;-80
2022/03/18 11:45:36;;;;;;;4.33;2.47;;;10.50;99.90;;;;;;5068596;28;20192;-79
2022/03/18 11:48:34;;;;;;;7.00;2.70;;;10.70;99.90;;;;;;5079963;28;20200;-78
2022/03/18 11:51:29;;;;;;;4.83;2.00;;;10.80;99.90;;;;;;5067236;28;20220;-84
2022/03/18 11:54:00;;;;;;;6.33;2.30;;;11.00;99.90;;;;;;5068890;28;20198;-83
2022/03/18 11:56:44;;;;;;;4.77;2.23;;;11.10;99.90;;;;;;5071138;28;20181;-81
2022/03/18 11:59:28;;;;;;;5.10;2.37;;;11.20;99.90;;;;;;5068029;28;20177;-79
2022/03/18 12:01:59;;;;;;;5.27;2.70;;;11.20;99.90;;;;;;5077091;28;20577;-82
2022/03/18 12:04:52;;;;;;;4.40;2.33;;;11.10;99.90;;;;;;5068070;28;20244;-81
2022/03/18 12:07:24;;;;;;;3.00;1.70;;;11.10;99.90;;;;;;5068971;28;20204;-82
2022/03/18 12:09:53;;;;;;;6.00;2.60;;;11.20;99.90;;;;;;5067761;28;20220;-80
2022/03/18 12:12:38;;;;;;;4.67;1.90;;;11.00;99.90;;;;;;5079538;28;20264;-82
2022/03/18 12:15:05;;;;;;;3.63;2.10;;;11.10;99.90;;;;;;5078022;28;21178;-81
2022/03/18 12:17:38;;;;;;;4.97;2.53;;;11.30;99.90;;;;;;5070009;28;20217;-83
2022/03/18 12:20:06;;;;;;;4.57;2.43;;;11.30;99.90;;;;;;5078872;28;20204;-81
2022/03/18 12:22:37;;;;;;;4.97;2.40;;;11.30;99.90;;;;;;5081195;28;20571;-83
2022/03/18 12:25:04;;;;;;;5.10;1.80;;;11.20;99.90;;;;;;5068460;28;20196;-80
2022/03/18 12:27:39;;;;;;;5.23;2.00;;;11.20;99.90;;;;;;5070820;28;20593;-84
2022/03/18 12:30:16;;;;;;;3.10;1.70;;;11.20;99.90;;;;;;5072337;28;20177;-83
2022/03/18 12:32:52;;;;;;;4.17;2.10;;;11.20;99.90;;;;;;5081606;28;20698;-81
2022/03/18 12:35:23;;;;;;;4.43;2.27;;;11.40;99.90;;;;;;5069406;28;20188;-81
2022/03/18 12:37:48;;;;;;;4.00;1.90;;;11.50;99.90;;;;;;5069852;28;20268;-83
2022/03/18 12:40:16;;;;;;;4.20;2.00;;;11.50;99.90;;;;;;5068587;28;20268;-82
2022/03/18 12:42:47;;;;;;;5.60;1.98;;;11.70;99.90;;;;;;5064121;28;20212;-80
2022/03/18 12:45:48;;;;;;;4.00;1.87;;;11.70;99.90;;;;;;5068465;28;20215;-83
2022/03/18 12:48:17;;;;;;;2.63;1.65;;;11.70;99.90;;;;;;5065851;28;20216;-83
2022/03/18 12:50:43;;;;;;;4.72;2.03;;;12.00;99.90;;;;;;5070057;28;20239;-83
2022/03/18 12:53:20;;;;;;;4.13;1.80;;;11.90;99.90;;;;;;5070484;28;20411;-81
2022/03/18 12:55:58;;;;;;;4.03;1.83;;;11.60;99.90;;;;;;5069545;28;20181;-81
2022/03/18 12:58:27;;;;;;;4.85;2.08;;;11.60;99.90;;;;;;5070142;28;20188;-82
2022/03/18 13:00:59;;;;;;;3.42;1.73;;;11.70;99.90;;;;;;5071242;28;20189;-83
2022/03/18 13:03:30;;;;;;;18.33;10.85;;;11.90;99.90;;;;;;5082133;28;20205;-84
2022/03/18 13:06:18;;;;;;;72.50;42.30;;;12.00;99.90;;;;;;5071615;28;20223;-82
2022/03/18 13:08:51;;;;;;;6.90;3.80;;;11.80;99.90;;;;;;5070334;28;20221;-84
2022/03/18 13:11:17;;;;;;;20.05;14.02;;;12.00;99.90;;;;;;5079644;28;20174;-84
2022/03/18 13:13:50;;;;;;;10.27;5.88;;;12.10;99.90;;;;;;5070768;28;20197;-82